RYR5ZT EPWR-EINN
Flight info
| Callsign | RYR5ZT |
|---|---|
| Flight time | 2h 27m |
| Altitude | 38000 |
| Route | ULGIL Z348 RENDO DCT KUMER DCT HMM DCT GALSO Q63 ICTAM L179 SAWPE DCT OZZIL DCT ARPAK DCT FELCA DCT OFSOX DCT SLANY DCT TIPUR TIPUR2D |
| Aircraft | B38M/M-SADE3FGILRWY/SB1 |
Departure
| Time | 2026-05-07 12:43 |
|---|---|
| Airport | Copernicus Wrocław Airport (EPWR) |
Arrival
| Time | 2026-05-07 15:10 |
|---|---|
| Airport | Shannon Airport (EINN) |
| Time | Latitude | Longitude | Altitude | Speed | Heading |
|---|---|---|---|---|---|
| 2026-05-07 12:13 | 51.10886 | 16.87938 | 406 ft | 0 kts | 26° |
| 2026-05-07 12:33 | 51.10855 | 16.87915 | 402 ft | 4 kts | 15° |
| 2026-05-07 12:33 | 51.10829 | 16.87912 | 402 ft | 4 kts | 347° |
| 2026-05-07 12:33 | 51.10808 | 16.87931 | 404 ft | 4 kts | 301° |
| 2026-05-07 12:34 | 51.10804 | 16.87944 | 406 ft | 0 kts | 296° |
| 2026-05-07 12:36 | 51.10805 | 16.87941 | 406 ft | 1 kts | 296° |
| 2026-05-07 12:36 | 51.10819 | 16.87895 | 403 ft | 8 kts | 296° |
| 2026-05-07 12:37 | 51.10854 | 16.87780 | 406 ft | 14 kts | 296° |
| 2026-05-07 12:37 | 51.10899 | 16.87636 | 403 ft | 15 kts | 296° |
| 2026-05-07 12:37 | 51.10943 | 16.87493 | 403 ft | 11 kts | 296° |
| 2026-05-07 12:37 | 51.10922 | 16.87399 | 405 ft | 10 kts | 208° |
| 2026-05-07 12:38 | 51.10850 | 16.87345 | 405 ft | 12 kts | 205° |
| 2026-05-07 12:38 | 51.10768 | 16.87280 | 406 ft | 14 kts | 206° |
| 2026-05-07 12:38 | 51.10672 | 16.87273 | 405 ft | 16 kts | 141° |
| 2026-05-07 12:38 | 51.10616 | 16.87435 | 402 ft | 18 kts | 115° |
| 2026-05-07 12:39 | 51.10560 | 16.87624 | 401 ft | 20 kts | 115° |
| 2026-05-07 12:39 | 51.10499 | 16.87832 | 403 ft | 21 kts | 115° |
| 2026-05-07 12:39 | 51.10433 | 16.88051 | 402 ft | 22 kts | 115° |
| 2026-05-07 12:39 | 51.10366 | 16.88275 | 407 ft | 23 kts | 117° |
| 2026-05-07 12:40 | 51.10292 | 16.88511 | 408 ft | 25 kts | 116° |
| 2026-05-07 12:40 | 51.10212 | 16.88769 | 405 ft | 27 kts | 117° |
| 2026-05-07 12:40 | 51.10129 | 16.89035 | 406 ft | 24 kts | 116° |
| 2026-05-07 12:40 | 51.10058 | 16.89268 | 407 ft | 24 kts | 115° |
| 2026-05-07 12:41 | 51.09991 | 16.89482 | 408 ft | 18 kts | 117° |
| 2026-05-07 12:41 | 51.09937 | 16.89649 | 406 ft | 14 kts | 117° |
| 2026-05-07 12:41 | 51.09890 | 16.89739 | 406 ft | 6 kts | 128° |
| 2026-05-07 12:41 | 51.09891 | 16.89750 | 406 ft | 0 kts | 56° |
| 2026-05-07 12:42 | 51.09900 | 16.89751 | 406 ft | 3 kts | 351° |
| 2026-05-07 12:42 | 51.09930 | 16.89684 | 406 ft | 16 kts | 296° |
| 2026-05-07 12:42 | 51.10085 | 16.89178 | 406 ft | 91 kts | 295° |
| 2026-05-07 12:42 | 51.10473 | 16.87912 | 413 ft | 159 kts | 299° |
| 2026-05-07 12:43 | 51.11006 | 16.86234 | 1028 ft | 172 kts | 300° |
| 2026-05-07 12:43 | 51.11542 | 16.84502 | 1994 ft | 178 kts | 297° |
| 2026-05-07 12:43 | 51.12105 | 16.82652 | 2737 ft | 197 kts | 294° |
| 2026-05-07 12:43 | 51.12558 | 16.80472 | 3354 ft | 220 kts | 274° |
| 2026-05-07 12:44 | 51.12324 | 16.77995 | 4144 ft | 231 kts | 245° |
| 2026-05-07 12:44 | 51.11346 | 16.75897 | 5083 ft | 246 kts | 221° |
| 2026-05-07 12:44 | 51.09911 | 16.74280 | 6009 ft | 254 kts | 223° |
| 2026-05-07 12:44 | 51.08995 | 16.71936 | 7104 ft | 255 kts | 255° |
| 2026-05-07 12:45 | 51.08886 | 16.69081 | 8079 ft | 263 kts | 270° |
| 2026-05-07 12:45 | 51.08936 | 16.66146 | 9069 ft | 268 kts | 269° |
| 2026-05-07 12:45 | 51.08975 | 16.63159 | 10063 ft | 272 kts | 269° |
| 2026-05-07 12:45 | 51.09019 | 16.60070 | 10707 ft | 288 kts | 269° |
| 2026-05-07 12:46 | 51.09063 | 16.56788 | 11275 ft | 305 kts | 269° |
| 2026-05-07 12:46 | 51.09112 | 16.53355 | 11950 ft | 316 kts | 269° |
| 2026-05-07 12:46 | 51.09166 | 16.49850 | 12869 ft | 318 kts | 269° |
| 2026-05-07 12:46 | 51.09222 | 16.46298 | 13688 ft | 324 kts | 269° |
| 2026-05-07 12:47 | 51.09279 | 16.42699 | 14448 ft | 328 kts | 268° |
| 2026-05-07 12:47 | 51.09337 | 16.39042 | 15186 ft | 332 kts | 268° |
| 2026-05-07 12:47 | 51.09394 | 16.35350 | 15908 ft | 337 kts | 268° |
| 2026-05-07 12:47 | 51.09451 | 16.31602 | 16625 ft | 341 kts | 268° |
| 2026-05-07 12:48 | 51.09507 | 16.27810 | 17322 ft | 345 kts | 268° |
| 2026-05-07 12:48 | 51.09563 | 16.23973 | 18012 ft | 349 kts | 268° |
| 2026-05-07 12:48 | 51.09618 | 16.20086 | 18638 ft | 353 kts | 267° |
| 2026-05-07 12:48 | 51.09673 | 16.16167 | 19256 ft | 355 kts | 267° |
| 2026-05-07 12:49 | 51.09726 | 16.12225 | 19881 ft | 358 kts | 267° |
| 2026-05-07 12:49 | 51.09779 | 16.08252 | 20479 ft | 360 kts | 266° |
| 2026-05-07 12:49 | 51.09832 | 16.04250 | 21078 ft | 363 kts | 266° |
| 2026-05-07 12:49 | 51.10021 | 16.00277 | 21655 ft | 369 kts | 272° |
| 2026-05-07 12:50 | 51.10352 | 15.96164 | 22263 ft | 371 kts | 272° |
| 2026-05-07 12:50 | 51.10661 | 15.92071 | 22823 ft | 374 kts | 271° |
| 2026-05-07 12:50 | 51.10957 | 15.88004 | 23361 ft | 377 kts | 271° |
| 2026-05-07 12:50 | 51.11252 | 15.83846 | 23844 ft | 380 kts | 271° |
| 2026-05-07 12:51 | 51.11547 | 15.79652 | 24295 ft | 382 kts | 271° |
| 2026-05-07 12:51 | 51.11840 | 15.75434 | 24747 ft | 385 kts | 270° |
| 2026-05-07 12:51 | 51.12134 | 15.71193 | 25205 ft | 387 kts | 270° |
| 2026-05-07 12:51 | 51.12428 | 15.66919 | 25634 ft | 390 kts | 270° |
| 2026-05-07 12:52 | 51.12724 | 15.62616 | 26056 ft | 392 kts | 270° |
| 2026-05-07 12:52 | 51.13229 | 15.58310 | 26461 ft | 399 kts | 276° |
| 2026-05-07 12:52 | 51.13805 | 15.53980 | 26891 ft | 401 kts | 275° |
| 2026-05-07 12:52 | 51.14366 | 15.49615 | 27303 ft | 403 kts | 275° |
| 2026-05-07 12:53 | 51.14916 | 15.45230 | 27736 ft | 405 kts | 274° |
| 2026-05-07 12:53 | 51.15463 | 15.40824 | 28129 ft | 408 kts | 274° |
| 2026-05-07 12:53 | 51.16012 | 15.36376 | 28513 ft | 410 kts | 274° |
| 2026-05-07 12:53 | 51.16561 | 15.31906 | 28893 ft | 413 kts | 274° |
| 2026-05-07 12:54 | 51.17112 | 15.27407 | 29268 ft | 415 kts | 274° |
| 2026-05-07 12:54 | 51.17664 | 15.22881 | 29643 ft | 417 kts | 274° |
| 2026-05-07 12:54 | 51.18219 | 15.18321 | 29987 ft | 420 kts | 274° |
| 2026-05-07 12:54 | 51.18774 | 15.13744 | 30291 ft | 422 kts | 274° |
| 2026-05-07 12:55 | 51.19331 | 15.09131 | 30573 ft | 425 kts | 274° |
| 2026-05-07 12:55 | 51.19890 | 15.04497 | 30848 ft | 427 kts | 275° |
| 2026-05-07 12:55 | 51.20354 | 14.99821 | 31122 ft | 425 kts | 269° |
| 2026-05-07 12:55 | 51.20661 | 14.95113 | 31363 ft | 429 kts | 270° |
| 2026-05-07 12:56 | 51.20992 | 14.90379 | 31638 ft | 431 kts | 271° |
| 2026-05-07 12:56 | 51.21335 | 14.85612 | 31925 ft | 434 kts | 271° |
| 2026-05-07 12:56 | 51.21682 | 14.80822 | 32181 ft | 436 kts | 271° |
| 2026-05-07 12:56 | 51.22031 | 14.75998 | 32445 ft | 439 kts | 271° |
| 2026-05-07 12:57 | 51.22380 | 14.71148 | 32708 ft | 441 kts | 272° |
| 2026-05-07 12:57 | 51.22728 | 14.66278 | 32962 ft | 443 kts | 272° |
| 2026-05-07 12:57 | 51.23077 | 14.61376 | 33272 ft | 444 kts | 272° |
| 2026-05-07 12:57 | 51.23413 | 14.56483 | 33619 ft | 444 kts | 272° |
| 2026-05-07 12:58 | 51.23741 | 14.51585 | 33948 ft | 444 kts | 272° |
| 2026-05-07 12:58 | 51.24069 | 14.46685 | 34224 ft | 444 kts | 272° |
| 2026-05-07 12:58 | 51.24395 | 14.41772 | 34509 ft | 444 kts | 272° |
| 2026-05-07 12:58 | 51.24719 | 14.36873 | 34794 ft | 444 kts | 272° |
| 2026-05-07 12:59 | 51.25041 | 14.31972 | 35067 ft | 444 kts | 272° |
| 2026-05-07 12:59 | 51.25361 | 14.27070 | 35333 ft | 444 kts | 272° |
| 2026-05-07 12:59 | 51.25679 | 14.22169 | 35606 ft | 444 kts | 272° |
| 2026-05-07 12:59 | 51.25995 | 14.17259 | 35869 ft | 444 kts | 272° |
| 2026-05-07 13:00 | 51.26308 | 14.12355 | 36127 ft | 444 kts | 272° |
| 2026-05-07 13:00 | 51.26620 | 14.07455 | 36382 ft | 444 kts | 272° |
| 2026-05-07 13:00 | 51.26929 | 14.02550 | 36618 ft | 444 kts | 272° |
| 2026-05-07 13:00 | 51.27237 | 13.97647 | 36855 ft | 444 kts | 272° |
| 2026-05-07 13:01 | 51.27544 | 13.92729 | 37095 ft | 444 kts | 272° |
| 2026-05-07 13:01 | 51.27908 | 13.87837 | 37319 ft | 445 kts | 276° |
| 2026-05-07 13:01 | 51.28392 | 13.82959 | 37542 ft | 445 kts | 276° |
| 2026-05-07 13:01 | 51.28858 | 13.78068 | 37765 ft | 445 kts | 275° |
| 2026-05-07 13:02 | 51.29314 | 13.73184 | 37962 ft | 445 kts | 275° |
| 2026-05-07 13:02 | 51.29762 | 13.68351 | 38004 ft | 446 kts | 275° |
| 2026-05-07 13:02 | 51.30663 | 13.58517 | 37993 ft | 444 kts | 275° |
| 2026-05-07 13:03 | 51.31551 | 13.48740 | 37992 ft | 444 kts | 275° |
| 2026-05-07 13:03 | 51.32425 | 13.39023 | 37992 ft | 445 kts | 275° |
| 2026-05-07 13:04 | 51.33297 | 13.29236 | 37994 ft | 445 kts | 275° |
| 2026-05-07 13:04 | 51.34161 | 13.19439 | 37998 ft | 445 kts | 275° |
| 2026-05-07 13:05 | 51.35017 | 13.09643 | 38013 ft | 445 kts | 275° |
| 2026-05-07 13:05 | 51.35864 | 12.99852 | 38007 ft | 444 kts | 275° |
| 2026-05-07 13:06 | 51.36702 | 12.90060 | 38007 ft | 444 kts | 275° |
| 2026-05-07 13:06 | 51.37532 | 12.80274 | 38013 ft | 444 kts | 275° |
| 2026-05-07 13:07 | 51.38354 | 12.70472 | 38021 ft | 444 kts | 275° |
| 2026-05-07 13:07 | 51.39033 | 12.62306 | 38018 ft | 444 kts | 275° |
| 2026-05-07 13:08 | 51.39840 | 12.52501 | 38022 ft | 444 kts | 275° |
| 2026-05-07 13:08 | 51.40639 | 12.42691 | 38020 ft | 444 kts | 275° |
| 2026-05-07 13:09 | 51.41429 | 12.32878 | 38027 ft | 444 kts | 275° |
| 2026-05-07 13:09 | 51.42211 | 12.23073 | 38025 ft | 444 kts | 275° |
| 2026-05-07 13:10 | 51.42986 | 12.13252 | 38026 ft | 444 kts | 275° |
| 2026-05-07 13:10 | 51.43751 | 12.03434 | 38025 ft | 444 kts | 275° |
| 2026-05-07 13:11 | 51.44509 | 11.93616 | 38021 ft | 444 kts | 275° |
| 2026-05-07 13:11 | 51.45257 | 11.83800 | 38029 ft | 444 kts | 275° |
| 2026-05-07 13:12 | 51.45998 | 11.73982 | 38024 ft | 443 kts | 275° |
| 2026-05-07 13:12 | 51.46730 | 11.64170 | 38028 ft | 444 kts | 275° |
| 2026-05-07 13:13 | 51.47454 | 11.54342 | 38021 ft | 443 kts | 275° |
| 2026-05-07 13:13 | 51.48168 | 11.44527 | 38022 ft | 443 kts | 275° |
| 2026-05-07 13:14 | 51.48877 | 11.34692 | 38026 ft | 443 kts | 275° |
| 2026-05-07 13:14 | 51.49575 | 11.24865 | 38024 ft | 443 kts | 275° |
| 2026-05-07 13:15 | 51.50266 | 11.15039 | 38024 ft | 443 kts | 275° |
| 2026-05-07 13:15 | 51.50948 | 11.05206 | 38021 ft | 443 kts | 275° |
| 2026-05-07 13:16 | 51.51623 | 10.95372 | 38020 ft | 443 kts | 275° |
| 2026-05-07 13:16 | 51.52292 | 10.85529 | 38030 ft | 443 kts | 275° |
| 2026-05-07 13:17 | 51.52953 | 10.75696 | 38019 ft | 443 kts | 275° |
| 2026-05-07 13:17 | 51.53606 | 10.65862 | 38033 ft | 443 kts | 275° |
| 2026-05-07 13:18 | 51.54773 | 10.56145 | 38026 ft | 444 kts | 280° |
| 2026-05-07 13:18 | 51.55964 | 10.46466 | 38039 ft | 444 kts | 279° |
| 2026-05-07 13:19 | 51.57134 | 10.36714 | 38021 ft | 444 kts | 279° |
| 2026-05-07 13:19 | 51.58294 | 10.26967 | 38033 ft | 444 kts | 279° |
| 2026-05-07 13:20 | 51.59447 | 10.17202 | 38034 ft | 444 kts | 279° |
| 2026-05-07 13:20 | 51.60590 | 10.07441 | 38036 ft | 444 kts | 279° |
| 2026-05-07 13:21 | 51.61727 | 9.97665 | 38043 ft | 444 kts | 279° |
| 2026-05-07 13:21 | 51.62854 | 9.87899 | 38038 ft | 444 kts | 279° |
| 2026-05-07 13:22 | 51.63974 | 9.78118 | 38042 ft | 444 kts | 279° |
| 2026-05-07 13:22 | 51.65084 | 9.68350 | 38050 ft | 444 kts | 279° |
| 2026-05-07 13:23 | 51.66187 | 9.58566 | 38044 ft | 444 kts | 279° |
| 2026-05-07 13:23 | 51.67280 | 9.48795 | 38047 ft | 444 kts | 279° |
| 2026-05-07 13:24 | 51.68367 | 9.38998 | 38053 ft | 444 kts | 279° |
| 2026-05-07 13:24 | 51.69446 | 9.29205 | 38046 ft | 444 kts | 279° |
| 2026-05-07 13:25 | 51.70516 | 9.19405 | 38052 ft | 444 kts | 279° |
| 2026-05-07 13:25 | 51.71578 | 9.09602 | 38048 ft | 444 kts | 278° |
| 2026-05-07 13:26 | 51.72631 | 8.99794 | 38052 ft | 444 kts | 278° |
| 2026-05-07 13:26 | 51.73678 | 8.89967 | 38051 ft | 444 kts | 278° |
| 2026-05-07 13:27 | 51.74716 | 8.80147 | 38049 ft | 444 kts | 278° |
| 2026-05-07 13:27 | 51.75746 | 8.70315 | 38050 ft | 444 kts | 278° |
| 2026-05-07 13:28 | 51.76768 | 8.60487 | 38048 ft | 444 kts | 278° |
| 2026-05-07 13:28 | 51.77780 | 8.50658 | 38054 ft | 444 kts | 278° |
| 2026-05-07 13:29 | 51.78786 | 8.40808 | 38057 ft | 444 kts | 278° |
| 2026-05-07 13:29 | 51.79783 | 8.30971 | 38057 ft | 444 kts | 278° |
| 2026-05-07 13:30 | 51.80765 | 8.21188 | 38061 ft | 444 kts | 278° |
| 2026-05-07 13:30 | 51.81744 | 8.11343 | 38064 ft | 444 kts | 278° |
| 2026-05-07 13:31 | 51.82715 | 8.01497 | 38062 ft | 444 kts | 278° |
| 2026-05-07 13:31 | 51.83682 | 7.91639 | 38066 ft | 444 kts | 278° |
| 2026-05-07 13:32 | 51.84641 | 7.81783 | 38062 ft | 444 kts | 278° |
| 2026-05-07 13:32 | 51.85599 | 7.71926 | 38063 ft | 444 kts | 279° |
| 2026-05-07 13:33 | 51.85967 | 7.66989 | 38045 ft | 441 kts | 267° |
| 2026-05-07 13:33 | 51.85713 | 7.62065 | 38074 ft | 440 kts | 266° |
| 2026-05-07 13:33 | 51.85535 | 7.52134 | 38079 ft | 443 kts | 268° |
| 2026-05-07 13:34 | 51.85368 | 7.37222 | 38057 ft | 442 kts | 268° |
| 2026-05-07 13:35 | 51.85255 | 7.27269 | 38050 ft | 442 kts | 268° |
| 2026-05-07 13:35 | 51.85134 | 7.17334 | 38042 ft | 442 kts | 268° |
| 2026-05-07 13:36 | 51.85004 | 7.07388 | 38045 ft | 442 kts | 268° |
| 2026-05-07 13:36 | 51.84866 | 6.97445 | 38038 ft | 442 kts | 268° |
| 2026-05-07 13:37 | 51.84720 | 6.87510 | 38035 ft | 442 kts | 268° |
| 2026-05-07 13:37 | 51.84566 | 6.77579 | 38036 ft | 442 kts | 268° |
| 2026-05-07 13:38 | 51.84403 | 6.67646 | 38042 ft | 442 kts | 268° |
| 2026-05-07 13:38 | 51.84231 | 6.57717 | 38041 ft | 441 kts | 268° |
| 2026-05-07 13:39 | 51.84052 | 6.47800 | 38044 ft | 441 kts | 268° |
| 2026-05-07 13:39 | 51.83864 | 6.37887 | 38045 ft | 441 kts | 267° |
| 2026-05-07 13:40 | 51.83668 | 6.27979 | 38044 ft | 441 kts | 267° |
| 2026-05-07 13:40 | 51.83465 | 6.18075 | 38045 ft | 441 kts | 267° |
| 2026-05-07 13:41 | 51.83252 | 6.08173 | 38048 ft | 441 kts | 267° |
| 2026-05-07 13:41 | 51.83031 | 5.98281 | 38034 ft | 440 kts | 267° |
| 2026-05-07 13:42 | 51.82802 | 5.88384 | 38067 ft | 440 kts | 267° |
| 2026-05-07 13:42 | 51.82565 | 5.78497 | 38061 ft | 440 kts | 267° |
| 2026-05-07 13:43 | 51.82322 | 5.68678 | 38064 ft | 440 kts | 267° |
| 2026-05-07 13:43 | 51.82066 | 5.58737 | 38058 ft | 440 kts | 267° |
| 2026-05-07 13:44 | 51.81806 | 5.48930 | 38050 ft | 440 kts | 266° |
| 2026-05-07 13:44 | 51.81536 | 5.39055 | 38067 ft | 439 kts | 266° |
| 2026-05-07 13:45 | 51.81257 | 5.29128 | 38049 ft | 439 kts | 266° |
| 2026-05-07 13:45 | 51.80973 | 5.19340 | 38069 ft | 439 kts | 266° |
| 2026-05-07 13:46 | 51.80679 | 5.09481 | 38062 ft | 439 kts | 266° |
| 2026-05-07 13:46 | 51.80376 | 4.99622 | 38067 ft | 439 kts | 266° |
| 2026-05-07 13:47 | 51.80065 | 4.89761 | 38071 ft | 439 kts | 266° |
| 2026-05-07 13:47 | 51.79746 | 4.79915 | 38074 ft | 439 kts | 266° |
| 2026-05-07 13:48 | 51.79419 | 4.70077 | 38076 ft | 439 kts | 266° |
| 2026-05-07 13:48 | 51.79084 | 4.60223 | 38067 ft | 439 kts | 266° |
| 2026-05-07 13:49 | 51.78740 | 4.50378 | 38076 ft | 439 kts | 266° |
| 2026-05-07 13:49 | 51.78389 | 4.40536 | 38065 ft | 439 kts | 265° |
| 2026-05-07 13:50 | 51.78029 | 4.30698 | 38072 ft | 439 kts | 265° |
| 2026-05-07 13:50 | 51.77661 | 4.20862 | 38076 ft | 439 kts | 265° |
| 2026-05-07 13:51 | 51.77284 | 4.11019 | 38076 ft | 439 kts | 265° |
| 2026-05-07 13:51 | 51.76899 | 4.01165 | 38085 ft | 439 kts | 265° |
| 2026-05-07 13:52 | 51.76506 | 3.91333 | 38079 ft | 440 kts | 265° |
| 2026-05-07 13:52 | 51.76104 | 3.81477 | 38093 ft | 439 kts | 265° |
| 2026-05-07 13:53 | 51.75764 | 3.73308 | 38093 ft | 439 kts | 265° |
| 2026-05-07 13:53 | 51.75349 | 3.63496 | 38089 ft | 439 kts | 265° |
| 2026-05-07 13:54 | 51.74927 | 3.53646 | 38091 ft | 439 kts | 265° |
| 2026-05-07 13:54 | 51.74497 | 3.43803 | 38095 ft | 440 kts | 265° |
| 2026-05-07 13:55 | 51.74059 | 3.33961 | 38090 ft | 440 kts | 265° |
| 2026-05-07 13:55 | 51.73615 | 3.24141 | 38086 ft | 440 kts | 265° |
| 2026-05-07 13:56 | 51.72991 | 3.14340 | 38084 ft | 439 kts | 261° |
| 2026-05-07 13:56 | 51.72128 | 3.04579 | 38078 ft | 439 kts | 261° |
| 2026-05-07 13:57 | 51.71298 | 2.94835 | 38088 ft | 439 kts | 261° |
| 2026-05-07 13:57 | 51.70467 | 2.85135 | 38085 ft | 439 kts | 261° |
| 2026-05-07 13:58 | 51.69620 | 2.75327 | 38089 ft | 439 kts | 261° |
| 2026-05-07 13:58 | 51.68764 | 2.65573 | 38088 ft | 439 kts | 261° |
| 2026-05-07 13:59 | 51.67889 | 2.55834 | 38088 ft | 439 kts | 261° |
| 2026-05-07 13:59 | 51.67006 | 2.46101 | 38084 ft | 439 kts | 261° |
| 2026-05-07 14:00 | 51.66114 | 2.36371 | 38085 ft | 439 kts | 261° |
| 2026-05-07 14:00 | 51.65216 | 2.26655 | 38074 ft | 439 kts | 261° |
| 2026-05-07 14:01 | 51.64315 | 2.17002 | 38086 ft | 439 kts | 260° |
| 2026-05-07 14:01 | 51.63413 | 2.07292 | 38084 ft | 438 kts | 261° |
| 2026-05-07 14:02 | 51.62505 | 1.97526 | 38087 ft | 439 kts | 261° |
| 2026-05-07 14:02 | 51.61599 | 1.87821 | 38080 ft | 439 kts | 260° |
| 2026-05-07 14:03 | 51.60684 | 1.78121 | 38077 ft | 439 kts | 260° |
| 2026-05-07 14:03 | 51.59768 | 1.68493 | 38082 ft | 438 kts | 260° |
| 2026-05-07 14:04 | 51.58815 | 1.58736 | 38079 ft | 438 kts | 259° |
| 2026-05-07 14:04 | 51.57849 | 1.49142 | 38082 ft | 438 kts | 259° |
| 2026-05-07 14:05 | 51.56868 | 1.39473 | 38077 ft | 438 kts | 259° |
| 2026-05-07 14:05 | 51.55880 | 1.29807 | 38084 ft | 438 kts | 259° |
| 2026-05-07 14:06 | 51.54885 | 1.20158 | 38076 ft | 438 kts | 259° |
| 2026-05-07 14:06 | 51.54194 | 1.10451 | 38072 ft | 438 kts | 268° |
| 2026-05-07 14:07 | 51.54062 | 1.00640 | 38071 ft | 439 kts | 268° |
| 2026-05-07 14:07 | 51.53932 | 0.90832 | 38077 ft | 439 kts | 268° |
| 2026-05-07 14:08 | 51.53797 | 0.81022 | 38078 ft | 439 kts | 267° |
| 2026-05-07 14:08 | 51.53654 | 0.71210 | 38076 ft | 439 kts | 267° |
| 2026-05-07 14:09 | 51.53503 | 0.61411 | 38074 ft | 439 kts | 267° |
| 2026-05-07 14:09 | 51.53343 | 0.51580 | 38075 ft | 439 kts | 267° |
| 2026-05-07 14:10 | 51.53176 | 0.41773 | 38073 ft | 439 kts | 267° |
| 2026-05-07 14:10 | 51.53199 | 0.31958 | 38071 ft | 440 kts | 269° |
| 2026-05-07 14:11 | 51.53228 | 0.22130 | 38076 ft | 440 kts | 269° |
| 2026-05-07 14:11 | 51.53245 | 0.12306 | 38077 ft | 440 kts | 269° |
| 2026-05-07 14:12 | 51.53253 | 0.02492 | 38077 ft | 440 kts | 269° |
| 2026-05-07 14:12 | 51.53253 | -0.07328 | 38078 ft | 440 kts | 269° |
| 2026-05-07 14:13 | 51.53245 | -0.17096 | 38070 ft | 440 kts | 268° |
| 2026-05-07 14:13 | 51.53229 | -0.26973 | 38048 ft | 440 kts | 268° |
| 2026-05-07 14:14 | 51.53205 | -0.36803 | 38050 ft | 440 kts | 268° |
| 2026-05-07 14:14 | 51.53172 | -0.46565 | 38047 ft | 440 kts | 268° |
| 2026-05-07 14:15 | 51.53131 | -0.56437 | 38050 ft | 440 kts | 268° |
| 2026-05-07 14:15 | 51.53082 | -0.66207 | 38051 ft | 440 kts | 268° |
| 2026-05-07 14:16 | 51.53024 | -0.76094 | 38044 ft | 440 kts | 268° |
| 2026-05-07 14:16 | 51.52959 | -0.85920 | 38044 ft | 440 kts | 268° |
| 2026-05-07 14:17 | 51.52885 | -0.95735 | 38045 ft | 440 kts | 268° |
| 2026-05-07 14:17 | 51.52804 | -1.05568 | 38051 ft | 440 kts | 268° |
| 2026-05-07 14:18 | 51.52739 | -1.15386 | 38045 ft | 440 kts | 271° |
| 2026-05-07 14:18 | 51.53767 | -1.25094 | 38045 ft | 442 kts | 279° |
| 2026-05-07 14:19 | 51.54897 | -1.34802 | 38043 ft | 442 kts | 279° |
| 2026-05-07 14:19 | 51.56036 | -1.44521 | 38039 ft | 442 kts | 279° |
| 2026-05-07 14:20 | 51.57168 | -1.54238 | 38043 ft | 442 kts | 279° |
| 2026-05-07 14:20 | 51.58288 | -1.63957 | 38036 ft | 442 kts | 277° |
| 2026-05-07 14:21 | 51.58993 | -1.73762 | 38039 ft | 441 kts | 275° |
| 2026-05-07 14:21 | 51.59700 | -1.83495 | 38040 ft | 441 kts | 275° |
| 2026-05-07 14:22 | 51.60417 | -1.93301 | 38040 ft | 442 kts | 275° |
| 2026-05-07 14:22 | 51.61128 | -2.03123 | 38037 ft | 442 kts | 275° |
| 2026-05-07 14:23 | 51.61830 | -2.12940 | 38040 ft | 442 kts | 275° |
| 2026-05-07 14:23 | 51.62523 | -2.22750 | 38042 ft | 441 kts | 275° |
| 2026-05-07 14:24 | 51.63209 | -2.32569 | 38039 ft | 442 kts | 275° |
| 2026-05-07 14:24 | 51.63919 | -2.42393 | 38025 ft | 442 kts | 279° |
| 2026-05-07 14:25 | 51.65706 | -2.51881 | 38034 ft | 444 kts | 285° |
| 2026-05-07 14:25 | 51.67570 | -2.61371 | 38040 ft | 444 kts | 286° |
| 2026-05-07 14:26 | 51.69439 | -2.70859 | 38047 ft | 444 kts | 285° |
| 2026-05-07 14:26 | 51.71301 | -2.80349 | 38050 ft | 444 kts | 285° |
| 2026-05-07 14:27 | 51.73158 | -2.89862 | 38049 ft | 444 kts | 285° |
| 2026-05-07 14:27 | 51.75006 | -2.99374 | 38044 ft | 444 kts | 285° |
| 2026-05-07 14:28 | 51.76845 | -3.08885 | 38050 ft | 444 kts | 285° |
| 2026-05-07 14:28 | 51.78679 | -3.18422 | 38042 ft | 444 kts | 285° |
| 2026-05-07 14:29 | 51.80504 | -3.27948 | 38032 ft | 444 kts | 285° |
| 2026-05-07 14:29 | 51.81558 | -3.37670 | 38036 ft | 440 kts | 274° |
| 2026-05-07 14:30 | 51.82156 | -3.47531 | 38025 ft | 441 kts | 274° |
| 2026-05-07 14:30 | 51.82346 | -3.50788 | 38023 ft | 441 kts | 273° |
| 2026-05-07 14:31 | 51.84177 | -3.66568 | 38025 ft | 443 kts | 279° |
| 2026-05-07 14:31 | 51.85432 | -3.76298 | 38021 ft | 442 kts | 279° |
| 2026-05-07 14:32 | 51.86682 | -3.86045 | 38017 ft | 442 kts | 279° |
| 2026-05-07 14:32 | 51.87923 | -3.95793 | 38019 ft | 443 kts | 279° |
| 2026-05-07 14:33 | 51.89157 | -4.05553 | 38016 ft | 442 kts | 279° |
| 2026-05-07 14:33 | 51.90383 | -4.15325 | 38018 ft | 443 kts | 279° |
| 2026-05-07 14:34 | 51.91600 | -4.25091 | 38016 ft | 442 kts | 279° |
| 2026-05-07 14:34 | 51.92809 | -4.34864 | 38019 ft | 442 kts | 279° |
| 2026-05-07 14:35 | 51.94009 | -4.44631 | 38014 ft | 442 kts | 279° |
| 2026-05-07 14:35 | 51.95202 | -4.54409 | 38010 ft | 442 kts | 279° |
| 2026-05-07 14:36 | 51.96386 | -4.64196 | 38012 ft | 442 kts | 279° |
| 2026-05-07 14:36 | 51.97561 | -4.73975 | 38014 ft | 442 kts | 279° |
| 2026-05-07 14:37 | 51.98730 | -4.83780 | 38010 ft | 442 kts | 279° |
| 2026-05-07 14:37 | 52.00461 | -4.98421 | 38006 ft | 442 kts | 279° |
| 2026-05-07 14:38 | 52.01608 | -5.08218 | 38012 ft | 442 kts | 278° |
| 2026-05-07 14:38 | 52.02761 | -5.18078 | 38005 ft | 442 kts | 280° |
| 2026-05-07 14:39 | 52.04562 | -5.27584 | 38011 ft | 444 kts | 286° |
| 2026-05-07 14:39 | 52.06479 | -5.37113 | 38003 ft | 443 kts | 286° |
| 2026-05-07 14:40 | 52.07428 | -5.41830 | 37523 ft | 438 kts | 286° |
| 2026-05-07 14:40 | 52.08373 | -5.46542 | 36803 ft | 438 kts | 286° |
| 2026-05-07 14:40 | 52.09314 | -5.51238 | 36259 ft | 435 kts | 285° |
| 2026-05-07 14:40 | 52.10246 | -5.55900 | 35789 ft | 431 kts | 285° |
| 2026-05-07 14:41 | 52.11165 | -5.60512 | 35300 ft | 427 kts | 285° |
| 2026-05-07 14:41 | 52.12076 | -5.65090 | 34796 ft | 424 kts | 285° |
| 2026-05-07 14:41 | 52.12981 | -5.69651 | 34305 ft | 422 kts | 285° |
| 2026-05-07 14:41 | 52.13878 | -5.74183 | 33762 ft | 420 kts | 285° |
| 2026-05-07 14:42 | 52.14769 | -5.78695 | 33196 ft | 417 kts | 285° |
| 2026-05-07 14:42 | 52.15652 | -5.83166 | 32696 ft | 413 kts | 285° |
| 2026-05-07 14:42 | 52.16541 | -5.87606 | 32137 ft | 411 kts | 285° |
| 2026-05-07 14:42 | 52.17420 | -5.92007 | 31725 ft | 406 kts | 285° |
| 2026-05-07 14:43 | 52.18285 | -5.96351 | 31315 ft | 401 kts | 285° |
| 2026-05-07 14:43 | 52.19142 | -6.00665 | 30866 ft | 398 kts | 285° |
| 2026-05-07 14:43 | 52.19988 | -6.04932 | 30415 ft | 395 kts | 285° |
| 2026-05-07 14:43 | 52.20826 | -6.09171 | 29965 ft | 392 kts | 285° |
| 2026-05-07 14:44 | 52.21656 | -6.13378 | 29469 ft | 388 kts | 285° |
| 2026-05-07 14:44 | 52.22479 | -6.17553 | 29039 ft | 384 kts | 285° |
| 2026-05-07 14:44 | 52.23289 | -6.21676 | 28628 ft | 379 kts | 285° |
| 2026-05-07 14:44 | 52.24086 | -6.25739 | 28223 ft | 375 kts | 285° |
| 2026-05-07 14:45 | 52.24878 | -6.29793 | 27815 ft | 371 kts | 285° |
| 2026-05-07 14:45 | 52.25659 | -6.33785 | 27421 ft | 368 kts | 285° |
| 2026-05-07 14:45 | 52.26430 | -6.37746 | 27029 ft | 365 kts | 285° |
| 2026-05-07 14:45 | 52.27194 | -6.41675 | 26643 ft | 362 kts | 285° |
| 2026-05-07 14:46 | 52.27951 | -6.45576 | 26267 ft | 359 kts | 284° |
| 2026-05-07 14:46 | 52.28701 | -6.49447 | 25884 ft | 357 kts | 284° |
| 2026-05-07 14:46 | 52.29446 | -6.53300 | 25515 ft | 354 kts | 284° |
| 2026-05-07 14:46 | 52.30183 | -6.57122 | 25152 ft | 352 kts | 284° |
| 2026-05-07 14:47 | 52.30905 | -6.60875 | 24792 ft | 350 kts | 284° |
| 2026-05-07 14:47 | 52.31642 | -6.64707 | 24421 ft | 348 kts | 284° |
| 2026-05-07 14:47 | 52.32353 | -6.68416 | 24071 ft | 346 kts | 284° |
| 2026-05-07 14:47 | 52.33068 | -6.72153 | 23716 ft | 344 kts | 284° |
| 2026-05-07 14:48 | 52.33779 | -6.75877 | 23315 ft | 342 kts | 284° |
| 2026-05-07 14:48 | 52.34486 | -6.79585 | 22923 ft | 340 kts | 284° |
| 2026-05-07 14:48 | 52.35185 | -6.83258 | 22564 ft | 337 kts | 284° |
| 2026-05-07 14:48 | 52.35875 | -6.86892 | 22218 ft | 333 kts | 284° |
| 2026-05-07 14:49 | 52.36557 | -6.90490 | 21873 ft | 330 kts | 284° |
| 2026-05-07 14:49 | 52.37232 | -6.94057 | 21536 ft | 326 kts | 284° |
| 2026-05-07 14:49 | 52.37897 | -6.97582 | 21203 ft | 323 kts | 284° |
| 2026-05-07 14:49 | 52.38556 | -7.01079 | 20868 ft | 320 kts | 284° |
| 2026-05-07 14:50 | 52.39208 | -7.04546 | 20545 ft | 317 kts | 284° |
| 2026-05-07 14:50 | 52.39853 | -7.07981 | 20210 ft | 314 kts | 284° |
| 2026-05-07 14:50 | 52.40492 | -7.11389 | 19885 ft | 312 kts | 284° |
| 2026-05-07 14:50 | 52.41122 | -7.14758 | 19556 ft | 309 kts | 284° |
| 2026-05-07 14:51 | 52.41750 | -7.18122 | 19248 ft | 307 kts | 284° |
| 2026-05-07 14:51 | 52.42370 | -7.21446 | 18934 ft | 304 kts | 284° |
| 2026-05-07 14:51 | 52.42985 | -7.24756 | 18620 ft | 302 kts | 284° |
| 2026-05-07 14:51 | 52.43594 | -7.28033 | 18305 ft | 300 kts | 284° |
| 2026-05-07 14:52 | 52.44199 | -7.31295 | 17957 ft | 298 kts | 284° |
| 2026-05-07 14:52 | 52.44798 | -7.34529 | 17622 ft | 295 kts | 284° |
| 2026-05-07 14:52 | 52.45389 | -7.37727 | 17306 ft | 292 kts | 284° |
| 2026-05-07 14:52 | 52.45777 | -7.39829 | 17108 ft | 290 kts | 284° |
| 2026-05-07 14:53 | 52.46356 | -7.42976 | 16804 ft | 287 kts | 284° |
| 2026-05-07 14:53 | 52.46930 | -7.46093 | 16506 ft | 284 kts | 284° |
| 2026-05-07 14:53 | 52.47496 | -7.49182 | 16207 ft | 284 kts | 284° |
| 2026-05-07 14:53 | 52.48070 | -7.52310 | 15902 ft | 289 kts | 284° |
| 2026-05-07 14:54 | 52.48652 | -7.55489 | 15599 ft | 292 kts | 284° |
| 2026-05-07 14:54 | 52.49234 | -7.58677 | 15292 ft | 292 kts | 284° |
| 2026-05-07 14:54 | 52.49816 | -7.61868 | 14992 ft | 292 kts | 284° |
| 2026-05-07 14:54 | 52.50397 | -7.65061 | 14689 ft | 292 kts | 284° |
| 2026-05-07 14:55 | 52.50976 | -7.68245 | 14384 ft | 292 kts | 284° |
| 2026-05-07 14:55 | 52.51555 | -7.71438 | 14079 ft | 291 kts | 284° |
| 2026-05-07 14:55 | 52.52130 | -7.74612 | 13775 ft | 289 kts | 284° |
| 2026-05-07 14:55 | 52.52700 | -7.77768 | 13426 ft | 287 kts | 284° |
| 2026-05-07 14:56 | 52.53265 | -7.80898 | 13104 ft | 285 kts | 284° |
| 2026-05-07 14:56 | 52.53824 | -7.84000 | 12805 ft | 282 kts | 284° |
| 2026-05-07 14:56 | 52.54377 | -7.87073 | 12515 ft | 279 kts | 284° |
| 2026-05-07 14:56 | 52.54922 | -7.90108 | 12218 ft | 276 kts | 284° |
| 2026-05-07 14:57 | 52.55462 | -7.93116 | 11926 ft | 273 kts | 284° |
| 2026-05-07 14:57 | 52.55995 | -7.96090 | 11633 ft | 270 kts | 284° |
| 2026-05-07 14:57 | 52.56523 | -7.99044 | 11354 ft | 268 kts | 284° |
| 2026-05-07 14:57 | 52.57044 | -8.01959 | 11088 ft | 265 kts | 284° |
| 2026-05-07 14:58 | 52.57560 | -8.04851 | 10814 ft | 262 kts | 284° |
| 2026-05-07 14:58 | 52.58071 | -8.07716 | 10543 ft | 260 kts | 284° |
| 2026-05-07 14:58 | 52.58579 | -8.10556 | 10272 ft | 260 kts | 285° |
| 2026-05-07 14:58 | 52.59445 | -8.13156 | 9973 ft | 269 kts | 309° |
| 2026-05-07 14:59 | 52.60772 | -8.15439 | 9697 ft | 274 kts | 311° |
| 2026-05-07 14:59 | 52.62105 | -8.17697 | 9364 ft | 275 kts | 311° |
| 2026-05-07 14:59 | 52.63425 | -8.19913 | 9084 ft | 274 kts | 312° |
| 2026-05-07 14:59 | 52.64779 | -8.22171 | 8781 ft | 272 kts | 312° |
| 2026-05-07 15:00 | 52.66091 | -8.24352 | 8484 ft | 271 kts | 312° |
| 2026-05-07 15:00 | 52.67410 | -8.26540 | 8200 ft | 268 kts | 312° |
| 2026-05-07 15:00 | 52.68717 | -8.28710 | 7912 ft | 265 kts | 312° |
| 2026-05-07 15:00 | 52.70008 | -8.30853 | 7639 ft | 262 kts | 312° |
| 2026-05-07 15:01 | 52.71290 | -8.32981 | 7347 ft | 261 kts | 312° |
| 2026-05-07 15:01 | 52.72560 | -8.35093 | 7081 ft | 259 kts | 312° |
| 2026-05-07 15:01 | 52.73824 | -8.37197 | 6794 ft | 258 kts | 312° |
| 2026-05-07 15:01 | 52.75085 | -8.39297 | 6525 ft | 257 kts | 312° |
| 2026-05-07 15:02 | 52.76343 | -8.41393 | 6236 ft | 257 kts | 312° |
| 2026-05-07 15:02 | 52.77597 | -8.43483 | 5950 ft | 255 kts | 312° |
| 2026-05-07 15:02 | 52.78839 | -8.45555 | 5676 ft | 252 kts | 312° |
| 2026-05-07 15:02 | 52.80063 | -8.47601 | 5386 ft | 250 kts | 312° |
| 2026-05-07 15:03 | 52.81283 | -8.49640 | 5109 ft | 248 kts | 312° |
| 2026-05-07 15:03 | 52.82486 | -8.51656 | 4883 ft | 245 kts | 312° |
| 2026-05-07 15:03 | 52.83672 | -8.53643 | 4674 ft | 241 kts | 312° |
| 2026-05-07 15:03 | 52.84707 | -8.55740 | 4471 ft | 231 kts | 294° |
| 2026-05-07 15:04 | 52.85034 | -8.58232 | 4340 ft | 218 kts | 264° |
| 2026-05-07 15:04 | 52.84702 | -8.60602 | 4214 ft | 207 kts | 248° |
| 2026-05-07 15:04 | 52.84071 | -8.62699 | 4047 ft | 201 kts | 238° |
| 2026-05-07 15:04 | 52.83272 | -8.64564 | 3859 ft | 197 kts | 232° |
| 2026-05-07 15:05 | 52.82442 | -8.66351 | 3663 ft | 195 kts | 233° |
| 2026-05-07 15:05 | 52.81619 | -8.68114 | 3438 ft | 191 kts | 232° |
| 2026-05-07 15:05 | 52.80821 | -8.69827 | 3199 ft | 185 kts | 232° |
| 2026-05-07 15:05 | 52.80045 | -8.71479 | 2964 ft | 180 kts | 232° |
| 2026-05-07 15:06 | 52.79303 | -8.73072 | 2733 ft | 174 kts | 232° |
| 2026-05-07 15:06 | 52.78574 | -8.74631 | 2512 ft | 168 kts | 232° |
| 2026-05-07 15:06 | 52.77881 | -8.76108 | 2303 ft | 159 kts | 233° |
| 2026-05-07 15:06 | 52.77209 | -8.77542 | 2093 ft | 158 kts | 232° |
| 2026-05-07 15:07 | 52.76539 | -8.78973 | 1895 ft | 156 kts | 232° |
| 2026-05-07 15:07 | 52.75905 | -8.80322 | 1676 ft | 142 kts | 233° |
| 2026-05-07 15:07 | 52.75318 | -8.81584 | 1468 ft | 136 kts | 232° |
| 2026-05-07 15:07 | 52.74739 | -8.82819 | 1300 ft | 136 kts | 232° |
| 2026-05-07 15:08 | 52.74166 | -8.84051 | 1076 ft | 135 kts | 232° |
| 2026-05-07 15:08 | 52.73583 | -8.85279 | 880 ft | 136 kts | 232° |
| 2026-05-07 15:08 | 52.73003 | -8.86518 | 709 ft | 136 kts | 232° |
| 2026-05-07 15:08 | 52.72420 | -8.87766 | 508 ft | 140 kts | 232° |
| 2026-05-07 15:09 | 52.71829 | -8.89033 | 364 ft | 140 kts | 230° |
| 2026-05-07 15:09 | 52.71239 | -8.90286 | 150 ft | 136 kts | 232° |
| 2026-05-07 15:09 | 52.70670 | -8.91496 | 28 ft | 124 kts | 232° |
| 2026-05-07 15:09 | 52.70307 | -8.92261 | 37 ft | 50 kts | 232° |
| 2026-05-07 15:10 | 52.70116 | -8.92665 | 35 ft | 34 kts | 232° |
| 2026-05-07 15:10 | 52.70006 | -8.92901 | 38 ft | 18 kts | 232° |
| 2026-05-07 15:10 | 52.69946 | -8.92970 | 41 ft | 9 kts | 181° |
| 2026-05-07 15:10 | 52.69877 | -8.92893 | 30 ft | 17 kts | 136° |
| 2026-05-07 15:11 | 52.69784 | -8.92746 | 26 ft | 18 kts | 136° |
| 2026-05-07 15:11 | 52.69704 | -8.92611 | 25 ft | 15 kts | 135° |
| 2026-05-07 15:11 | 52.69628 | -8.92488 | 29 ft | 16 kts | 135° |
| 2026-05-07 15:11 | 52.69545 | -8.92349 | 25 ft | 18 kts | 127° |
| 2026-05-07 15:12 | 52.69506 | -8.92221 | 25 ft | 8 kts | 111° |
| 2026-05-07 15:12 | 52.69487 | -8.92161 | 27 ft | 5 kts | 142° |
| 2026-05-07 15:12 | 52.69449 | -8.92158 | 25 ft | 7 kts | 184° |
| 2026-05-07 15:12 | 52.69401 | -8.92164 | 25 ft | 5 kts | 184° |
| 2026-05-07 15:13 | 52.69383 | -8.92166 | 25 ft | 1 kts | 184° |
| 2026-05-07 15:13 | 52.69375 | -8.92167 | 25 ft | 0 kts | 185° |